Time;durP1;ratioP1;P1;durP2;ratioP2;P2;SDS_P1;SDS_P2;PMS_P1;PMS_P2;Temp;Humidity;BMP_temperature;BMP_pressure;BME280_temperature;BME280_humidity;BME280_pressure;Samples;Min_cycle;Max_cycle;Signal;HPM_P1;HPM_P2
2022/08/21 00:01:35;;;;;;;19.48;13.65;;;;;;;18.98;100.00;98538.84;4315027;80;21582;-83
2022/08/21 00:07:36;;;;;;;19.12;13.35;;;;;;;19.02;100.00;98532.59;4303564;80;21000;-83
2022/08/21 00:13:39;;;;;;;19.60;13.00;;;;;;;18.97;100.00;98528.19;4310413;80;21059;-84
2022/08/21 00:19:40;;;;;;;17.48;13.18;;;;;;;18.97;100.00;98516.49;4308324;80;20988;-84
2022/08/21 00:25:43;;;;;;;18.40;12.75;;;;;;;18.97;100.00;98501.84;4313508;80;21389;-83
2022/08/21 00:31:45;;;;;;;20.77;13.93;;;;;;;18.92;100.00;98516.27;4310738;80;21023;-83
2022/08/21 00:37:47;;;;;;;22.67;13.05;;;;;;;18.91;100.00;98509.16;4310373;80;21465;-83
2022/08/21 00:43:49;;;;;;;18.77;13.38;;;;;;;18.89;100.00;98506.06;4303188;80;21619;-83
2022/08/21 00:49:51;;;;;;;17.45;12.80;;;;;;;18.89;100.00;98496.36;4313335;80;21008;-82
2022/08/21 00:55:53;;;;;;;16.57;12.50;;;;;;;18.92;100.00;98494.09;4310305;80;21008;-82
2022/08/21 01:01:55;;;;;;;20.50;13.35;;;;;;;18.91;100.00;98496.67;4296240;80;21067;-83
2022/08/21 01:07:56;;;;;;;15.70;12.30;;;;;;;18.98;100.00;98494.46;4278918;80;21012;-83
2022/08/21 01:13:59;;;;;;;15.25;12.07;;;;;;;18.98;100.00;98483.36;4307153;80;21001;-82
2022/08/21 01:20:05;;;;;;;14.15;12.25;;;;;;;18.99;100.00;98478.00;4305663;80;20972;-82
2022/08/21 01:26:07;;;;;;;17.65;12.90;;;;;;;18.98;100.00;98472.90;4311270;80;20984;-82
2022/08/21 01:32:14;;;;;;;16.65;13.55;;;;;;;18.98;100.00;98468.73;4317680;80;21003;-83
2022/08/21 01:38:15;;;;;;;;;;;;;;;18.90;100.00;98441.05;4318443;80;21000;-87
2022/08/21 01:44:21;;;;;;;19.98;12.30;;;;;;;18.94;100.00;98432.78;4318861;80;20105;-83
2022/08/21 01:50:22;;;;;;;24.92;16.87;;;;;;;18.92;100.00;98444.17;4289905;80;20988;-84
2022/08/21 01:56:25;;;;;;;22.00;15.40;;;;;;;18.85;100.00;98449.92;4314592;80;21000;-82
2022/08/21 04:27:52;;;;;;;14.07;9.58;;;;;;;19.65;100.00;98435.45;4474248;77;22900;-86
2022/08/21 04:33:53;;;;;;;16.37;10.20;;;;;;;19.59;100.00;98434.47;4393039;79;21601;-86
2022/08/21 04:39:57;;;;;;;15.58;10.60;;;;;;;19.56;100.00;98433.34;4291662;81;21023;-86
2022/08/21 04:46:00;;;;;;;15.65;11.12;;;;;;;19.57;100.00;98434.12;4216742;83;21062;-86
2022/08/21 04:52:03;;;;;;;20.95;12.35;;;;;;;19.56;100.00;98438.90;4274575;81;21514;-86
2022/08/21 04:58:10;;;;;;;22.80;12.58;;;;;;;19.59;100.00;98444.19;4270114;81;21029;-86
2022/08/21 05:04:17;;;;;;;18.35;13.25;;;;;;;19.64;100.00;98438.83;4254576;81;21125;-86
2022/08/21 05:10:19;;;;;;;21.42;12.82;;;;;;;19.69;100.00;98447.20;4261747;81;20982;-84
2022/08/21 05:16:20;;;;;;;17.73;12.47;;;;;;;19.73;100.00;98452.79;4244522;82;21578;-85
2022/08/21 05:22:24;;;;;;;20.60;13.48;;;;;;;19.78;100.00;98451.47;4286917;81;21103;-85
2022/08/21 05:28:25;;;;;;;21.20;15.75;;;;;;;19.84;100.00;98455.22;4261074;82;21073;-85
2022/08/21 05:34:28;;;;;;;24.52;16.80;;;;;;;19.92;100.00;98455.15;4265163;82;21003;-85
2022/08/21 05:40:31;;;;;;;22.40;14.47;;;;;;;19.96;100.00;98456.57;4262793;82;21039;-85
2022/08/21 05:46:32;;;;;;;23.27;15.88;;;;;;;20.02;100.00;98460.92;4260141;82;21050;-85
2022/08/21 05:52:34;;;;;;;32.33;19.10;;;;;;;20.05;100.00;98457.24;4260798;82;21989;-85
2022/08/21 05:58:36;;;;;;;25.40;16.50;;;;;;;20.15;100.00;98457.52;4264582;82;21038;-85
2022/08/21 06:04:39;;;;;;;33.58;21.75;;;;;;;20.25;100.00;98452.81;4262434;82;21045;-85
2022/08/21 06:10:41;;;;;;;35.80;21.65;;;;;;;20.34;100.00;98459.22;4268191;82;21011;-86
2022/08/21 06:16:42;;;;;;;30.72;19.62;;;;;;;20.36;100.00;98456.73;4165906;83;21035;-86
2022/08/21 06:22:43;;;;;;;34.10;21.27;;;;;;;20.44;100.00;98451.72;4260843;82;21062;-86
2022/08/21 06:28:45;;;;;;;31.57;18.48;;;;;;;20.52;100.00;98459.93;4258730;82;21062;-85
2022/08/21 06:34:46;;;;;;;27.10;18.77;;;;;;;20.61;100.00;98457.98;4259717;81;21018;-86
2022/08/21 06:40:48;;;;;;;25.68;19.95;;;;;;;20.69;100.00;98457.12;4256013;81;20983;-85
2022/08/21 06:46:50;;;;;;;28.73;19.73;;;;;;;20.73;100.00;98461.92;4266092;82;21070;-86
2022/08/21 06:53:01;;;;;;;31.68;21.27;;;;;;;20.80;100.00;98467.98;4261588;81;21054;-86
2022/08/21 06:59:03;;;;;;;34.83;20.60;;;;;;;20.89;100.00;98474.23;4255517;81;21038;-85
2022/08/21 07:05:05;;;;;;;33.42;21.60;;;;;;;20.90;100.00;98476.55;4264526;81;21053;-85
2022/08/21 07:11:18;;;;;;;36.28;22.27;;;;;;;20.90;100.00;98478.55;4263918;81;20986;-85
2022/08/21 07:17:19;;;;;;;39.55;22.42;;;;;;;20.93;100.00;98479.81;4257740;81;21037;-86
2022/08/21 07:23:28;;;;;;;42.78;23.90;;;;;;;20.98;100.00;98484.03;4267391;81;21066;-86
2022/08/21 07:29:29;;;;;;;36.70;23.05;;;;;;;21.01;100.00;98478.34;4258846;81;21049;-86
2022/08/21 07:35:32;;;;;;;41.83;26.30;;;;;;;21.05;100.00;98480.96;4261315;81;21093;-86
2022/08/21 07:41:35;;;;;;;40.55;24.57;;;;;;;21.04;100.00;98482.20;4266668;81;21066;-86
2022/08/21 07:47:36;;;;;;;40.55;24.37;;;;;;;21.05;100.00;98480.96;4248973;81;21026;-86
2022/08/21 07:53:39;;;;;;;40.75;25.08;;;;;;;21.07;100.00;98487.64;4265356;81;21024;-85
2022/08/21 07:59:40;;;;;;;38.70;22.85;;;;;;;21.14;100.00;98492.91;4262431;81;21344;-85
2022/08/21 08:05:42;;;;;;;38.65;23.70;;;;;;;21.20;100.00;98481.97;4275199;81;21087;-84
2022/08/21 08:11:43;;;;;;;45.83;24.12;;;;;;;21.26;100.00;98482.92;4262673;81;22219;-85
2022/08/21 08:17:46;;;;;;;35.60;23.77;;;;;;;21.31;100.00;98483.72;4264798;81;21070;-86
2022/08/21 08:23:49;;;;;;;42.80;24.07;;;;;;;21.40;100.00;98481.74;4258121;81;21027;-86
2022/08/21 08:29:51;;;;;;;44.75;24.70;;;;;;;21.39;100.00;98485.74;4243983;82;21050;-86
2022/08/21 08:35:52;;;;;;;40.23;24.25;;;;;;;21.37;100.00;98479.88;4240226;82;21887;-86
2022/08/21 08:42:21;;;;;;;35.75;24.75;;;;;;;21.38;100.00;98482.81;4228082;82;21575;-86
2022/08/21 08:48:43;;;;;;;41.50;25.20;;;;;;;21.42;100.00;98476.47;4266209;81;20998;-86
2022/08/21 08:54:58;;;;;;;40.48;24.37;;;;;;;21.48;100.00;98473.27;4269999;81;21039;-87
2022/08/21 09:01:01;;;;;;;35.75;24.30;;;;;;;21.58;100.00;98476.21;4189667;83;20989;-86
2022/08/21 09:07:49;;;;;;;37.20;24.45;;;;;;;21.68;100.00;98470.05;4201693;83;21497;-86
2022/08/21 09:14:11;;;;;;;34.53;23.05;;;;;;;21.79;100.00;98465.45;4234889;82;21015;-85
2022/08/21 09:20:56;;;;;;;35.48;24.47;;;;;;;21.88;100.00;98465.48;4200557;83;20982;-86
2022/08/21 09:27:06;;;;;;;34.33;22.37;;;;;;;21.92;100.00;98464.70;4247447;82;21841;-86
2022/08/21 09:33:11;;;;;;;32.03;22.58;;;;;;;22.01;100.00;98459.13;4267975;81;21062;-85
2022/08/21 09:39:27;;;;;;;40.08;24.15;;;;;;;22.10;100.00;98461.30;4267002;81;20979;-87
2022/08/21 09:45:29;;;;;;;31.57;21.95;;;;;;;22.29;100.00;98450.91;4264753;81;21078;-86
2022/08/21 09:51:35;;;;;;;31.77;22.27;;;;;;;22.45;100.00;98445.80;4258240;81;20975;-85
2022/08/21 09:57:39;;;;;;;31.57;23.47;;;;;;;22.62;100.00;98439.27;4259673;81;21684;-87
2022/08/21 10:03:40;;;;;;;34.65;24.12;;;;;;;22.79;100.00;98434.88;4269822;81;20976;-88
2022/08/21 10:09:42;;;;;;;33.38;23.73;;;;;;;23.06;100.00;98432.00;4265374;81;21097;-86
2022/08/21 10:16:13;;;;;;;37.23;27.93;;;;;;;23.43;100.00;98436.19;4262215;81;21002;-87
2022/08/21 10:22:23;;;;;;;34.58;26.02;;;;;;;23.57;100.00;98440.31;4263097;81;21852;-85
2022/08/21 10:28:48;;;;;;;25.08;17.75;;;;;;;23.32;100.00;98453.33;4179249;81;21153;-86
2022/08/21 10:35:10;;;;;;;10.10;7.33;;;;;;;22.96;100.00;98468.94;4166739;83;21002;-86
2022/08/21 10:41:46;;;;;;;11.08;3.83;;;;;;;22.42;100.00;98473.83;4145804;83;20966;-87
2022/08/21 10:47:52;;;;;;;5.40;3.10;;;;;;;21.88;100.00;98472.44;4154965;84;21574;-87
2022/08/21 10:54:11;;;;;;;5.05;2.72;;;;;;;21.50;100.00;98481.16;4151266;84;21019;-87
2022/08/21 11:00:21;;;;;;;8.73;2.70;;;;;;;21.28;100.00;98496.53;4125192;84;21450;-86
2022/08/21 11:06:27;;;;;;;4.37;2.20;;;;;;;21.03;100.00;98500.90;4154663;84;21496;-85
2022/08/21 11:12:46;;;;;;;5.17;2.60;;;;;;;20.75;100.00;98496.39;4159216;84;21083;-86
2022/08/21 11:18:57;;;;;;;3.62;2.12;;;;;;;20.63;100.00;98493.68;4160479;84;21636;-86
2022/08/21 11:25:19;;;;;;;3.17;2.15;;;;;;;20.52;100.00;98497.46;4162462;83;21535;-84
2022/08/21 11:32:02;;;;;;;2.80;1.82;;;;;;;20.45;100.00;98491.58;4234557;83;21617;-86
2022/08/21 11:38:32;;;;;;;3.45;1.92;;;;;;;20.49;100.00;98486.64;4189521;83;21030;-87
2022/08/21 11:44:58;;;;;;;4.92;1.72;;;;;;;20.65;100.00;98483.67;4226633;82;21630;-85
2022/08/21 11:51:05;;;;;;;4.42;2.62;;;;;;;20.91;100.00;98482.88;4131374;83;21035;-87
2022/08/21 11:57:15;;;;;;;3.40;2.22;;;;;;;21.18;100.00;98484.44;4204912;83;21962;-86
2022/08/21 12:03:25;;;;;;;4.72;2.22;;;;;;;21.37;100.00;98477.70;4232309;82;20993;-87
2022/08/21 12:09:32;;;;;;;4.12;2.35;;;;;;;21.31;100.00;98480.30;4235960;82;21634;-86
2022/08/21 12:15:34;;;;;;;4.92;3.05;;;;;;;21.22;100.00;98478.88;4179404;83;21564;-85
2022/08/21 12:22:01;;;;;;;4.70;2.30;;;;;;;21.19;100.00;98479.80;4229840;82;21093;-85
2022/08/21 12:28:13;;;;;;;5.33;2.67;;;;;;;21.24;100.00;98469.47;4225011;83;21027;-86
2022/08/21 12:34:16;;;;;;;5.30;2.80;;;;;;;21.31;99.88;98471.19;4300564;81;21539;-86
2022/08/21 12:40:43;;;;;;;3.75;3.35;;;;;;;21.21;99.76;98464.03;4267792;82;20985;-85
2022/08/21 12:47:05;;;;;;;3.50;2.35;;;;;;;21.17;99.67;98470.37;4292058;81;21013;-86
2022/08/21 12:53:30;;;;;;;4.33;2.70;;;;;;;21.15;100.00;98477.00;4249334;81;21121;-87
2022/08/21 12:59:34;;;;;;;4.62;2.62;;;;;;;21.14;100.00;98472.67;4238753;83;21000;-86
2022/08/21 13:05:37;;;;;;;3.27;2.40;;;;;;;21.22;99.92;98464.97;4292286;81;21903;-87
2022/08/21 13:11:44;;;;;;;4.12;3.00;;;;;;;21.25;100.00;98480.74;4292145;81;21019;-86
2022/08/21 13:17:48;;;;;;;3.25;2.62;;;;;;;21.33;100.00;98472.27;4236121;83;21898;-86
2022/08/21 13:23:49;;;;;;;3.30;2.60;;;;;;;21.39;100.00;98472.45;4245641;82;21098;-87
2022/08/21 13:30:05;;;;;;;3.08;2.35;;;;;;;21.44;99.89;98468.44;4287123;81;20963;-86
2022/08/21 13:36:17;;;;;;;3.72;2.80;;;;;;;21.46;99.61;98475.72;4282119;82;20987;-86
2022/08/21 13:42:19;;;;;;;4.08;3.00;;;;;;;21.40;99.46;98480.35;4239095;82;21048;-87
2022/08/21 13:48:28;;;;;;;5.20;3.05;;;;;;;21.45;99.64;98479.75;4216257;83;21615;-86
2022/08/21 13:54:40;;;;;;;3.70;2.85;;;;;;;21.47;99.68;98477.27;4292170;81;21071;-87
2022/08/21 14:00:50;;;;;;;4.28;3.17;;;;;;;21.50;99.34;98495.83;4269308;81;21469;-87
2022/08/21 14:06:53;;;;;;;6.25;3.90;;;;;;;21.48;99.40;98501.11;4270627;81;21003;-86
2022/08/21 14:13:00;;;;;;;3.60;2.92;;;;;;;21.47;99.37;98495.36;4282119;81;21027;-87
2022/08/21 14:19:07;;;;;;;4.22;2.72;;;;;;;21.38;99.12;98495.95;4233888;82;20995;-86
2022/08/21 14:25:26;;;;;;;3.37;2.25;;;;;;;21.33;99.29;98502.14;4224400;82;21101;-86
2022/08/21 14:31:34;;;;;;;3.85;2.20;;;;;;;21.27;99.36;98497.77;4254504;81;21003;-87
2022/08/21 14:37:36;;;;;;;3.77;1.92;;;;;;;21.22;99.38;98495.58;4258464;81;21047;-86
2022/08/21 14:43:37;;;;;;;2.83;2.00;;;;;;;21.19;99.40;98497.14;4268822;81;20987;-87
2022/08/21 14:49:39;;;;;;;2.85;2.08;;;;;;;21.07;99.32;98498.77;4265307;81;21043;-87
2022/08/21 15:02:03;;;;;;;2.45;2.25;;;;;;;20.72;99.09;98518.16;4256051;81;20975;-86
2022/08/21 15:08:05;;;;;;;2.60;2.40;;;;;;;20.53;99.30;98526.84;4273378;81;21003;-85
2022/08/21 15:14:11;;;;;;;3.05;2.67;;;;;;;20.37;99.13;98523.63;4259376;81;20999;-87
2022/08/21 15:20:13;;;;;;;3.90;3.20;;;;;;;20.23;99.05;98533.23;4267033;81;21073;-86
2022/08/21 15:26:15;;;;;;;5.45;3.62;;;;;;;20.05;99.22;98539.20;4254735;81;21050;-86
2022/08/21 15:32:27;;;;;;;5.97;4.85;;;;;;;19.91;99.48;98539.08;3994368;83;10000103;-86
2022/08/21 15:38:29;;;;;;;5.25;4.60;;;;;;;19.72;99.28;98553.99;4274685;81;21034;-86
2022/08/21 15:44:30;;;;;;;5.17;4.40;;;;;;;19.58;99.37;98557.23;4275059;81;20995;-86
2022/08/21 15:50:31;;;;;;;5.83;4.37;;;;;;;19.35;99.61;98576.21;4268931;81;21705;-87
2022/08/21 15:56:39;;;;;;;7.20;4.37;;;;;;;19.22;99.76;98587.87;4251777;81;20975;-86
2022/08/21 16:02:48;;;;;;;5.90;4.08;;;;;;;19.10;99.97;98590.80;4307454;83;21046;-86
2022/08/21 16:08:50;;;;;;;6.40;4.30;;;;;;;18.99;100.00;98586.18;4270587;81;20999;-85
2022/08/21 16:14:57;;;;;;;6.83;4.42;;;;;;;18.89;100.00;98603.13;4286271;83;21051;-85
2022/08/21 16:20:59;;;;;;;5.00;4.45;;;;;;;18.76;100.00;98594.77;4307314;83;20948;-86
2022/08/21 16:27:02;;;;;;;7.85;4.80;;;;;;;18.60;100.00;98603.89;4254192;81;21949;-85
2022/08/21 16:33:05;;;;;;;6.87;4.45;;;;;;;18.48;100.00;98605.22;4151491;81;9999606;-86
2022/08/21 16:39:06;;;;;;;5.97;4.45;;;;;;;18.36;100.00;98594.23;4251756;81;21047;-83
2022/08/21 16:45:12;;;;;;;7.72;5.08;;;;;;;18.31;100.00;98577.34;4256233;81;20992;-82
